EmailTwitter


Surface observations / Quebec / CYQB (71714)

Regions: Quebec | Canada | USA | Europe | France | UK | Elsewhere
Station
Display
Info & Location for CYQB (71714) | Help decoding METAR

Weather Conditions observed on 2018/02/24 at 15:00 UTC at QUEBEC A, QB (CYQB)

Sky conditions: partly cloudy.

Temperature: 0.0 Celsius.

Dewpoint: -5.0 Celsius.

Relative Humidity: 69%

Windchill Factor: -5.

Windchill Factor (Gusts): -7.

Winds: West at 17 km/h or 9 knots.

Gust: 31 km/h or 17 knots.

Mean Sea level Pressure: 101.86 kilopascals.

Altimeter Setting (QNH): 101.79 kilopascals or 30.06 inches of mercury.

Horizontal visibility: 30.00 statute miles or 48.00 kilometers.

Height of the Ceiling: 732 metres ( 2400 feet ).

Coded METAR:

CYQB 241500Z 28009G17KT 30SM BKN024 00/M05 A3006 RMK SC6 SLP186=